Time;durP1;ratioP1;P1;durP2;ratioP2;P2;SDS_P1;SDS_P2;PMS_P1;PMS_P2;Temp;Humidity;BMP_temperature;BMP_pressure;BME280_temperature;BME280_humidity;BME280_pressure;Samples;Min_cycle;Max_cycle;Signal;HPM_P1;HPM_P2
2021/10/26 00:02:44;;;;;;;6.53;5.80;;;;;;;9.07;83.15;101193.97;6341621;28;20482;-73
2021/10/26 00:05:49;;;;;;;8.60;5.10;;;;;;;9.07;83.47;101183.06;6342446;28;20268;-73
2021/10/26 00:08:56;;;;;;;6.18;5.43;;;;;;;9.09;83.33;101189.19;6341809;28;20474;-76
2021/10/26 00:12:00;;;;;;;6.70;5.68;;;;;;;9.06;83.21;101184.13;6343471;28;20226;-73
2021/10/26 00:15:06;;;;;;;8.98;5.90;;;;;;;9.11;83.56;101181.66;6343008;28;20189;-74
2021/10/26 00:18:15;;;;;;;5.70;5.30;;;;;;;9.09;83.73;101178.28;6343172;28;20183;-72
2021/10/26 00:21:19;;;;;;;7.05;5.70;;;;;;;9.01;84.99;101178.44;6343036;28;20301;-73
2021/10/26 00:24:26;;;;;;;10.18;6.63;;;;;;;8.99;85.44;101177.81;6341035;28;20477;-72
2021/10/26 00:27:30;;;;;;;6.55;5.35;;;;;;;9.09;85.90;101181.00;6342126;28;20183;-73
2021/10/26 00:30:34;;;;;;;6.72;6.07;;;;;;;8.97;86.20;101182.59;6340860;28;20190;-73
2021/10/26 00:33:38;;;;;;;7.47;6.05;;;;;;;9.02;86.49;101177.38;6340224;28;20499;-73
2021/10/26 00:36:43;;;;;;;8.48;5.93;;;;;;;9.09;85.82;101162.78;6341199;28;20194;-72
2021/10/26 00:39:49;;;;;;;6.07;5.68;;;;;;;9.10;87.46;101169.06;6323183;28;20205;-73
2021/10/26 00:42:54;;;;;;;7.85;6.60;;;;;;;9.08;87.27;101182.88;6340055;28;20411;-72
2021/10/26 00:45:58;;;;;;;9.27;6.45;;;;;;;9.09;86.83;101189.19;6340675;28;20197;-72
2021/10/26 00:49:09;;;;;;;12.55;7.13;;;;;;;9.07;87.21;101183.06;6322912;28;20551;-72
2021/10/26 00:52:15;;;;;;;7.18;6.50;;;;;;;9.04;87.40;101186.22;6322411;28;20266;-72
2021/10/26 00:55:21;;;;;;;10.30;6.53;;;;;;;9.05;86.73;101180.56;6323631;28;20225;-72
2021/10/26 00:58:25;;;;;;;11.10;6.93;;;;;;;9.10;87.39;101185.41;6322423;28;20205;-72
2021/10/26 01:01:31;;;;;;;6.22;5.80;;;;;;;9.12;87.75;101175.16;6322791;28;20230;-72
2021/10/26 01:04:35;;;;;;;6.75;6.10;;;;;;;9.18;87.06;101171.63;6339723;28;20187;-72
2021/10/26 01:07:40;;;;;;;6.80;6.20;;;;;;;9.12;87.43;101172.44;6339680;28;20227;-72
2021/10/26 01:10:48;;;;;;;7.78;5.95;;;;;;;9.21;86.46;101160.34;6322502;28;20237;-72
2021/10/26 01:13:53;;;;;;;6.88;5.90;;;;;;;9.14;87.13;101159.47;6322779;28;20245;-72
2021/10/26 01:17:05;;;;;;;7.57;5.82;;;;;;;9.01;87.04;101156.66;6322749;28;20199;-72
2021/10/26 01:20:12;;;;;;;6.53;6.00;;;;;;;9.10;86.54;101152.75;6340359;28;20190;-72
2021/10/26 01:23:16;;;;;;;6.88;6.18;;;;;;;9.07;86.75;101164.03;6339923;28;20194;-72
2021/10/26 01:26:21;;;;;;;6.90;5.90;;;;;;;8.97;87.36;101171.69;6322892;28;20199;-72
2021/10/26 01:29:25;;;;;;;7.28;6.60;;;;;;;9.02;87.30;101155.63;6339916;28;20190;-73
2021/10/26 01:32:29;;;;;;;7.38;6.75;;;;;;;8.95;87.48;101157.44;6322474;28;20198;-72
2021/10/26 01:35:53;;;;;;;7.13;6.43;;;;;;;9.05;86.55;101160.66;6322958;28;20230;-72
2021/10/26 01:38:57;;;;;;;7.22;6.53;;;;;;;9.00;87.44;101157.69;6322366;28;20234;-72
2021/10/26 01:42:05;;;;;;;7.80;6.75;;;;;;;8.94;87.64;101158.47;6321699;28;20221;-72
2021/10/26 01:45:11;;;;;;;10.23;6.80;;;;;;;9.00;86.99;101157.69;6322918;28;20248;-71
2021/10/26 01:48:15;;;;;;;7.53;6.75;;;;;;;8.98;86.85;101165.22;6338580;28;20527;-72
2021/10/26 01:51:21;;;;;;;9.63;6.40;;;;;;;9.06;86.24;101159.63;6321375;28;20199;-72
2021/10/26 01:54:25;;;;;;;7.38;6.70;;;;;;;9.00;86.30;101157.69;6320837;28;20257;-72
2021/10/26 01:57:29;;;;;;;8.02;7.00;;;;;;;8.87;86.79;101146.72;6320501;28;20262;-72
2021/10/26 02:00:39;;;;;;;7.63;6.53;;;;;;;8.90;86.80;101151.78;6320561;28;20205;-72
2021/10/26 02:03:47;;;;;;;8.48;6.55;;;;;;;8.70;87.70;101152.47;6321377;28;20202;-73
2021/10/26 02:06:54;;;;;;;7.85;7.00;;;;;;;8.82;87.11;101150.03;6320671;28;20229;-72
2021/10/26 02:09:58;;;;;;;10.23;7.10;;;;;;;8.72;87.81;101144.09;6320425;28;20230;-73
2021/10/26 02:13:04;;;;;;;9.50;6.90;;;;;;;8.73;87.46;101146.63;6339446;28;20187;-72
2021/10/26 02:16:09;;;;;;;6.78;6.18;;;;;;;8.79;87.34;101145.00;6320228;28;20596;-72
2021/10/26 02:19:14;;;;;;;7.43;6.65;;;;;;;8.88;87.08;101137.53;6320136;28;20262;-72
2021/10/26 02:22:20;;;;;;;8.48;6.57;;;;;;;8.77;88.14;101130.75;6339165;28;20250;-72
2021/10/26 02:25:25;;;;;;;10.32;6.60;;;;;;;8.76;87.71;101140.78;6320692;28;20217;-73
2021/10/26 02:28:32;;;;;;;7.22;6.68;;;;;;;8.76;88.60;101129.06;6321228;28;20198;-72
2021/10/26 02:31:37;;;;;;;10.95;6.65;;;;;;;8.73;89.06;101130.28;6320045;28;20203;-73
2021/10/26 02:34:43;;;;;;;10.82;7.40;;;;;;;8.79;88.35;101124.06;6337516;28;20573;-72
2021/10/26 02:37:49;;;;;;;11.23;7.00;;;;;;;8.94;87.29;101125.81;6320413;28;20262;-72
2021/10/26 02:40:54;;;;;;;8.82;7.32;;;;;;;8.86;88.46;101123.28;6320197;28;20280;-73
2021/10/26 02:43:58;;;;;;;11.38;8.00;;;;;;;8.93;87.82;101118.72;6319109;28;20248;-73
2021/10/26 02:47:03;;;;;;;14.35;7.90;;;;;;;8.90;88.66;101108.22;6319550;28;20566;-73
2021/10/26 02:50:10;;;;;;;9.85;8.32;;;;;;;8.84;89.33;101115.31;6319298;28;20320;-73
2021/10/26 02:53:16;;;;;;;11.77;7.60;;;;;;;8.83;89.25;101113.66;6337469;28;20183;-73
2021/10/26 02:56:20;;;;;;;12.23;8.40;;;;;;;8.98;89.28;101121.69;6336934;28;20218;-73
2021/10/26 02:59:25;;;;;;;10.10;8.18;;;;;;;8.98;89.24;101117.09;6318613;28;20477;-72
2021/10/26 03:02:30;;;;;;;12.85;8.57;;;;;;;9.08;88.49;101111.28;6319705;28;20198;-73
2021/10/26 03:05:35;;;;;;;12.70;8.93;;;;;;;8.96;89.63;101107.44;6319098;28;20202;-73
2021/10/26 03:08:41;;;;;;;9.88;8.70;;;;;;;8.96;89.78;101118.31;6336676;28;20192;-73
2021/10/26 03:11:49;;;;;;;12.10;8.52;;;;;;;8.95;89.78;101117.47;6319256;28;20453;-73
2021/10/26 03:14:54;;;;;;;15.43;9.38;;;;;;;8.98;90.13;101105.34;6319001;28;20589;-73
2021/10/26 03:17:59;;;;;;;16.02;9.15;;;;;;;9.02;89.92;101101.19;6318908;28;20205;-73
2021/10/26 03:21:04;;;;;;;12.73;8.77;;;;;;;9.02;90.19;101112.06;6319475;28;20202;-72
2021/10/26 03:24:10;;;;;;;14.23;8.77;;;;;;;9.06;90.34;101102.47;6336760;28;20189;-73
2021/10/26 03:27:14;;;;;;;16.90;9.20;;;;;;;9.13;89.98;101103.34;6319852;28;20244;-72
2021/10/26 03:30:20;;;;;;;18.00;8.95;;;;;;;9.16;89.72;101102.94;6336312;28;20183;-72
2021/10/26 03:33:27;;;;;;;13.65;8.77;;;;;;;9.22;89.33;101091.22;6318926;28;20474;-72
2021/10/26 03:36:34;;;;;;;15.93;8.75;;;;;;;9.22;89.38;101096.69;6336141;28;20573;-73
2021/10/26 03:39:41;;;;;;;13.35;9.00;;;;;;;9.22;90.39;101091.22;6337642;28;20192;-72
2021/10/26 03:42:45;;;;;;;13.95;9.07;;;;;;;9.18;90.50;101100.84;6318706;28;20203;-72
2021/10/26 03:45:50;;;;;;;16.33;9.52;;;;;;;9.22;90.34;101088.50;6318639;28;20269;-73
2021/10/26 03:48:54;;;;;;;14.90;8.98;;;;;;;9.27;89.60;101083.34;6318566;28;20229;-73
2021/10/26 03:51:59;;;;;;;17.02;9.48;;;;;;;9.32;89.14;101080.84;6318857;28;20198;-72
2021/10/26 03:55:06;;;;;;;12.85;8.95;;;;;;;9.42;88.89;101081.28;6317310;28;20307;-73
2021/10/26 03:58:11;;;;;;;14.40;9.75;;;;;;;9.40;89.40;101072.47;6319065;28;20241;-72
2021/10/26 04:01:21;;;;;;;18.83;9.32;;;;;;;9.41;89.37;101068.72;6318905;28;20272;-72
2021/10/26 04:04:26;;;;;;;12.35;8.98;;;;;;;9.36;89.58;101065.75;6318622;28;20521;-72
2021/10/26 04:07:31;;;;;;;12.30;9.07;;;;;;;9.31;90.59;101062.81;6317418;28;20261;-72
2021/10/26 04:10:46;;;;;;;16.58;9.15;;;;;;;9.26;90.68;101065.31;6337435;28;20182;-72
2021/10/26 04:13:52;;;;;;;15.05;9.95;;;;;;;9.27;90.83;101077.88;6322652;28;20205;-72
2021/10/26 04:16:56;;;;;;;17.02;9.43;;;;;;;9.23;91.44;101071.16;6340377;28;20398;-72
2021/10/26 04:20:00;;;;;;;23.20;10.18;;;;;;;9.20;91.91;101066.09;6323309;28;20199;-72
2021/10/26 04:23:07;;;;;;;20.60;9.63;;;;;;;9.21;91.91;101063.19;6323410;28;20205;-73
2021/10/26 04:26:15;;;;;;;20.08;9.60;;;;;;;9.36;90.44;101066.59;6323148;28;20203;-73
2021/10/26 04:29:20;;;;;;;21.75;9.30;;;;;;;9.40;90.47;101056.13;6340799;28;20186;-72
2021/10/26 04:32:24;;;;;;;15.60;8.98;;;;;;;9.37;90.91;101057.38;6322054;28;20198;-72
2021/10/26 04:35:39;;;;;;;18.88;9.77;;;;;;;9.30;91.02;101061.13;6321826;28;20499;-72
2021/10/26 04:38:43;;;;;;;12.52;9.00;;;;;;;9.24;92.12;101070.13;6339758;28;20187;-72
2021/10/26 04:41:50;;;;;;;13.23;8.40;;;;;;;9.27;91.93;101061.56;6322071;28;20497;-72
2021/10/26 04:44:54;;;;;;;18.30;8.98;;;;;;;9.20;92.84;101045.16;6340667;28;20187;-72
2021/10/26 04:47:59;;;;;;;19.83;9.35;;;;;;;9.22;92.66;101059.41;6340601;28;20250;-72
2021/10/26 04:51:04;;;;;;;13.25;9.35;;;;;;;9.13;93.58;101054.34;6321813;28;20198;-72
2021/10/26 04:54:10;;;;;;;17.48;8.77;;;;;;;9.28;92.51;101046.88;6323261;28;20190;-72
2021/10/26 04:57:17;;;;;;;15.40;8.80;;;;;;;9.35;92.27;101042.28;6321962;28;20285;-72
2021/10/26 05:00:52;;;;;;;16.30;8.55;;;;;;;9.39;92.02;101043.56;6321886;28;20199;-73
2021/10/26 05:03:56;;;;;;;19.15;9.35;;;;;;;9.32;92.43;101040.81;6322615;28;20198;-72
2021/10/26 05:07:01;;;;;;;15.30;9.02;;;;;;;9.22;92.76;101023.19;6321715;28;20295;-72
2021/10/26 05:10:08;;;;;;;15.13;8.38;;;;;;;9.19;93.12;101038.03;6322001;28;20548;-73
2021/10/26 05:13:14;;;;;;;20.88;9.45;;;;;;;9.17;93.36;101039.28;6322280;28;20198;-72
2021/10/26 05:16:53;;;;;;;16.52;8.73;;;;;;;9.19;93.77;101042.66;6327315;28;20238;-73
2021/10/26 05:20:17;;;;;;;13.05;8.65;;;;;;;9.23;93.95;101043.91;6339920;28;20184;-73
2021/10/26 05:23:45;;;;;;;15.25;8.20;;;;;;;9.25;93.13;101047.28;6339559;28;20234;-72
2021/10/26 05:27:12;;;;;;;19.63;8.98;;;;;;;9.30;93.39;101048.34;6320978;28;20203;-72
2021/10/26 05:30:17;;;;;;;11.20;8.65;;;;;;;9.34;92.71;101040.63;6338625;28;20183;-73
2021/10/26 05:33:22;;;;;;;16.55;9.23;;;;;;;9.29;93.64;101032.22;6339966;28;20217;-73
2021/10/26 05:36:26;;;;;;;16.92;8.45;;;;;;;9.44;92.08;101030.19;6339594;28;20213;-72
2021/10/26 05:39:30;;;;;;;14.13;8.55;;;;;;;9.49;92.42;101024.97;6321514;28;20229;-72
2021/10/26 05:42:34;;;;;;;16.67;9.13;;;;;;;9.51;91.73;101031.03;6320149;28;20230;-73
2021/10/26 05:45:45;;;;;;;14.70;8.50;;;;;;;9.61;91.32;101030.63;6338368;28;20246;-73
2021/10/26 05:48:49;;;;;;;13.75;7.80;;;;;;;9.55;91.67;101029.59;6339069;28;20190;-73
2021/10/26 05:51:54;;;;;;;13.60;8.13;;;;;;;9.45;91.78;101029.13;6337866;28;20183;-72
2021/10/26 05:54:58;;;;;;;16.85;9.15;;;;;;;9.34;93.47;101030.59;6338201;28;20182;-73
2021/10/26 05:58:02;;;;;;;16.98;9.35;;;;;;;9.35;93.41;101020.50;6337742;28;20214;-73
2021/10/26 06:01:08;;;;;;;17.42;9.13;;;;;;;9.23;94.28;101030.31;6337735;28;20347;-73
2021/10/26 06:04:12;;;;;;;15.90;8.60;;;;;;;9.33;93.69;101020.72;6337494;28;20183;-73
2021/10/26 06:07:16;;;;;;;15.77;9.25;;;;;;;9.43;93.34;101023.03;6319550;28;20230;-73
2021/10/26 06:10:21;;;;;;;16.35;9.32;;;;;;;9.40;93.46;101023.44;6319237;28;20206;-73
2021/10/26 06:13:30;;;;;;;16.77;9.05;;;;;;;9.45;93.53;101018.22;6320619;28;20262;-73
2021/10/26 06:16:37;;;;;;;14.90;9.02;;;;;;;9.44;93.89;101030.19;6319704;28;20253;-73
2021/10/26 06:19:44;;;;;;;20.33;9.23;;;;;;;9.39;94.24;101027.22;6319514;28;20199;-73
2021/10/26 06:22:49;;;;;;;12.95;8.68;;;;;;;9.44;93.20;101022.00;6337271;28;20288;-73
2021/10/26 06:25:53;;;;;;;13.38;8.95;;;;;;;9.38;93.57;101026.38;6319612;28;20416;-73
2021/10/26 06:29:17;;;;;;;17.95;8.70;;;;;;;9.40;93.66;101021.56;6319077;28;20199;-73
2021/10/26 06:32:49;;;;;;;15.80;8.30;;;;;;;9.42;93.21;101026.84;6306514;28;20209;-73
2021/10/26 06:36:19;;;;;;;11.48;8.13;;;;;;;9.35;93.48;101020.50;6317050;28;20222;-73
2021/10/26 06:39:27;;;;;;;13.48;8.75;;;;;;;9.36;94.00;101023.03;6319360;28;20475;-73
2021/10/26 06:42:34;;;;;;;15.32;10.15;;;;;;;9.38;93.57;101020.09;6319430;28;20494;-73
2021/10/26 06:45:56;;;;;;;11.95;8.85;;;;;;;9.23;94.65;101016.69;6338003;28;20190;-73
2021/10/26 06:49:21;;;;;;;17.73;8.82;;;;;;;9.51;93.44;101022.88;6338080;28;20258;-73
2021/10/26 06:52:44;;;;;;;20.75;9.13;;;;;;;9.40;93.73;101018.00;6336698;28;20546;-72
2021/10/26 06:56:11;;;;;;;16.60;8.55;;;;;;;9.49;93.46;101015.94;6337416;28;20214;-73
2021/10/26 06:59:34;;;;;;;18.80;8.73;;;;;;;9.44;93.68;101005.69;6337513;28;20260;-73
2021/10/26 07:03:06;;;;;;;14.75;8.98;;;;;;;9.42;94.11;101015.94;6337701;28;20284;-73
2021/10/26 07:06:32;;;;;;;15.27;9.07;;;;;;;9.49;93.63;101016.78;6295308;28;20269;-73
2021/10/26 07:10:06;;;;;;;11.10;8.50;;;;;;;9.38;94.73;101017.38;6319384;28;20513;-72
2021/10/26 07:13:13;;;;;;;16.70;9.63;;;;;;;9.43;94.49;100995.81;6319120;28;20470;-73
2021/10/26 07:16:18;;;;;;;14.88;8.93;;;;;;;9.43;94.90;101001.25;6337396;28;20183;-73
2021/10/26 07:19:24;;;;;;;13.98;8.32;;;;;;;9.40;95.21;101007.09;6319108;28;20299;-73
2021/10/26 07:23:08;;;;;;;11.70;8.13;;;;;;;9.48;94.72;101003.34;6309943;28;20231;-73
2021/10/26 07:26:33;;;;;;;11.95;7.28;;;;;;;9.61;93.73;101009.69;6310921;28;20216;-73
2021/10/26 07:29:41;;;;;;;9.38;8.02;;;;;;;9.65;93.59;101010.97;6318385;28;20483;-73
2021/10/26 07:32:45;;;;;;;10.75;7.57;;;;;;;9.66;94.06;101007.19;6318621;28;20412;-74
2021/10/26 07:35:52;;;;;;;15.38;7.93;;;;;;;9.72;93.38;101006.34;6318639;28;20513;-73
2021/10/26 07:39:00;;;;;;;13.48;7.95;;;;;;;9.64;93.85;101009.28;6318125;28;20218;-73
2021/10/26 07:42:05;;;;;;;13.52;7.90;;;;;;;9.71;93.61;101003.81;6318341;28;20205;-72
2021/10/26 07:45:27;;;;;;;12.48;7.97;;;;;;;9.67;93.88;100997.97;6336313;28;20183;-72
2021/10/26 07:48:33;;;;;;;11.70;7.95;;;;;;;9.75;93.72;101005.94;6323629;28;20202;-73
2021/10/26 07:51:37;;;;;;;11.85;7.40;;;;;;;9.90;92.73;100987.53;6323361;28;20199;-73
2021/10/26 07:54:47;;;;;;;13.60;7.53;;;;;;;9.93;92.63;100992.56;6323998;28;20198;-73
2021/10/26 07:57:54;;;;;;;10.93;7.80;;;;;;;9.92;92.54;101001.78;6323150;28;20222;-74
2021/10/26 08:00:59;;;;;;;14.23;7.50;;;;;;;10.04;92.19;101002.81;6322860;28;20271;-73
2021/10/26 08:04:26;;;;;;;11.40;7.32;;;;;;;10.15;91.74;100989.63;6322761;28;20199;-73
2021/10/26 08:07:49;;;;;;;13.02;6.75;;;;;;;10.09;91.91;100992.13;6322699;28;20262;-73
2021/10/26 08:10:55;;;;;;;11.00;7.07;;;;;;;10.21;91.28;100983.34;6322626;28;20256;-73
2021/10/26 08:14:00;;;;;;;12.55;6.50;;;;;;;10.20;91.91;100976.19;6323189;28;20198;-73
2021/10/26 08:17:06;;;;;;;11.30;6.82;;;;;;;10.27;90.98;100982.50;6341827;28;20190;-73
2021/10/26 08:20:11;;;;;;;11.95;6.72;;;;;;;10.27;91.31;100982.50;6322753;28;20266;-72
2021/10/26 08:23:17;;;;;;;9.48;6.15;;;;;;;10.28;91.38;100976.00;6323511;28;20206;-74
2021/10/26 08:26:31;;;;;;;9.93;6.55;;;;;;;10.27;91.69;100968.88;6322467;28;20374;-73
2021/10/26 08:29:46;;;;;;;8.02;6.53;;;;;;;10.25;91.29;100979.13;6322255;28;20203;-72
2021/10/26 08:32:57;;;;;;;7.25;6.50;;;;;;;10.30;92.12;100976.59;6322978;28;20199;-72
2021/10/26 08:36:05;;;;;;;8.13;6.25;;;;;;;10.30;92.15;100974.72;6321839;28;20271;-72
2021/10/26 08:39:12;;;;;;;9.55;6.13;;;;;;;10.38;92.04;100965.47;6322969;28;20255;-72
2021/10/26 08:42:23;;;;;;;8.27;5.88;;;;;;;10.44;91.65;100976.41;6322467;28;20199;-72
2021/10/26 08:45:28;;;;;;;10.20;5.95;;;;;;;10.58;90.86;100969.00;6322983;28;20199;-73
2021/10/26 08:48:40;;;;;;;10.00;5.90;;;;;;;10.61;91.12;100976.75;6322250;28;20207;-72
2021/10/26 08:52:05;;;;;;;8.48;5.95;;;;;;;10.70;90.73;100967.31;6339782;28;20411;-72
2021/10/26 08:55:10;;;;;;;8.93;6.18;;;;;;;10.65;90.87;100975.31;6322178;28;20198;-73
2021/10/26 08:58:39;;;;;;;10.23;6.00;;;;;;;10.83;89.93;100966.44;6338724;28;20539;-73
2021/10/26 09:01:51;;;;;;;7.25;5.80;;;;;;;10.89;89.49;100969.13;6322279;28;20512;-72
2021/10/26 09:05:07;;;;;;;13.18;5.72;;;;;;;10.91;90.22;100964.31;6340474;28;20183;-72
2021/10/26 09:08:14;;;;;;;11.30;5.45;;;;;;;10.92;89.37;100959.66;6339624;28;20238;-72
2021/10/26 09:11:23;;;;;;;6.40;5.72;;;;;;;10.87;89.15;100963.03;6321765;28;20206;-72
2021/10/26 09:18:32;;;;;;;11.90;5.60;;;;;;;11.08;88.33;100954.56;6339465;28;20226;-73
2021/10/26 09:21:41;;;;;;;9.88;5.53;;;;;;;11.09;88.36;100950.75;6340113;28;20218;-73
2021/10/26 09:24:55;;;;;;;9.90;5.43;;;;;;;11.05;88.67;100965.91;6321897;28;20285;-73
2021/10/26 09:28:09;;;;;;;9.68;5.03;;;;;;;11.22;87.77;100963.53;6338941;28;20512;-74
2021/10/26 09:31:24;;;;;;;17.05;6.18;;;;;;;11.10;88.20;100957.06;6338817;28;20424;-73
2021/10/26 09:34:28;;;;;;;9.63;6.20;;;;;;;11.20;87.28;100947.34;6338627;28;20527;-72
2021/10/26 09:37:35;;;;;;;11.70;5.63;;;;;;;11.21;87.04;100943.56;6338444;28;20356;-72
2021/10/26 09:40:42;;;;;;;6.45;5.32;;;;;;;11.16;87.60;100946.13;6338938;28;20183;-72
2021/10/26 09:43:46;;;;;;;6.18;5.30;;;;;;;11.20;87.45;100941.03;6339606;28;20187;-73
2021/10/26 09:46:53;;;;;;;10.63;5.57;;;;;;;11.21;87.27;100948.19;6339331;28;20246;-73
2021/10/26 09:49:59;;;;;;;7.15;4.93;;;;;;;11.27;87.07;100947.31;6339552;28;20226;-73
2021/10/26 09:53:06;;;;;;;7.90;5.25;;;;;;;11.24;87.00;100947.75;6338369;28;20293;-74
2021/10/26 09:56:12;;;;;;;12.30;5.00;;;;;;;11.37;86.14;100946.84;6337834;28;20489;-73
2021/10/26 09:59:36;;;;;;;8.82;5.47;;;;;;;11.36;86.39;100943.25;6338855;28;20211;-73
2021/10/26 10:02:43;;;;;;;6.32;5.00;;;;;;;11.35;86.20;100933.38;6338767;28;20246;-73
2021/10/26 10:05:53;;;;;;;6.20;5.25;;;;;;;11.30;86.88;100931.31;6337929;28;20209;-73
2021/10/26 10:08:57;;;;;;;6.43;5.00;;;;;;;11.37;86.72;100924.97;6338477;28;20187;-73
2021/10/26 10:12:05;;;;;;;6.75;5.07;;;;;;;11.45;86.26;100919.25;6338621;28;20194;-73
2021/10/26 10:15:10;;;;;;;8.68;4.43;;;;;;;11.53;85.72;100913.53;6338843;28;20190;-73
2021/10/26 10:18:25;;;;;;;5.07;4.65;;;;;;;11.55;85.37;100906.78;6321733;28;20273;-73
2021/10/26 10:21:30;;;;;;;7.18;4.85;;;;;;;11.56;85.44;100913.06;6337278;28;20214;-73
2021/10/26 10:24:39;;;;;;;8.27;4.53;;;;;;;11.52;86.32;100906.38;6319777;28;20198;-73
2021/10/26 10:27:47;;;;;;;7.18;4.57;;;;;;;11.47;85.85;100903.47;6338173;28;20198;-73
2021/10/26 10:30:52;;;;;;;5.32;4.72;;;;;;;11.44;86.45;100909.38;6338561;28;20187;-73
2021/10/26 10:33:59;;;;;;;7.88;4.75;;;;;;;11.48;86.16;100910.63;6337089;28;20496;-73
2021/10/26 10:37:05;;;;;;;8.95;4.70;;;;;;;11.56;86.05;100918.53;6338056;28;20184;-73
2021/10/26 10:40:13;;;;;;;19.10;4.10;;;;;;;11.56;85.31;100916.63;6336868;28;20253;-73
2021/10/26 10:43:35;;;;;;;8.43;4.53;;;;;;;11.65;85.14;100903.56;6319188;28;20205;-73
2021/10/26 10:46:41;;;;;;;4.88;4.45;;;;;;;11.54;85.77;100916.03;6336859;28;20474;-73
2021/10/26 10:49:50;;;;;;;4.47;4.05;;;;;;;11.63;84.75;100902.94;6338115;28;20225;-73
2021/10/26 10:53:24;;;;;;;4.80;4.40;;;;;;;11.67;84.56;100910.47;6337204;28;20190;-72
2021/10/26 10:56:28;;;;;;;7.72;4.18;;;;;;;11.69;84.24;100891.97;6337706;28;20183;-72
2021/10/26 10:59:48;;;;;;;5.88;4.10;;;;;;;11.58;84.47;100894.56;6337758;28;20285;-73
2021/10/26 11:02:53;;;;;;;5.80;3.65;;;;;;;11.62;84.95;100890.31;6336963;28;20250;-72
2021/10/26 11:05:59;;;;;;;6.65;4.38;;;;;;;11.72;84.96;100901.63;6337496;28;20304;-72
2021/10/26 11:09:03;;;;;;;4.72;4.07;;;;;;;11.69;84.29;100888.41;6337777;28;20194;-72
2021/10/26 11:12:17;;;;;;;4.65;4.10;;;;;;;11.73;84.49;100892.38;6337867;28;20190;-72
2021/10/26 11:15:25;;;;;;;7.45;3.80;;;;;;;11.75;84.37;100890.25;6336312;28;20413;-73
2021/10/26 11:18:37;;;;;;;6.00;4.20;;;;;;;11.73;84.81;100881.44;6337214;28;20183;-73
2021/10/26 11:21:43;;;;;;;4.50;4.07;;;;;;;11.78;84.79;100884.34;6335363;28;20183;-73
2021/10/26 11:25:19;;;;;;;5.03;3.65;;;;;;;11.79;84.56;100880.53;6337458;28;20213;-73
2021/10/26 11:28:41;;;;;;;4.38;3.88;;;;;;;11.83;84.15;100881.78;6336369;28;20302;-72
2021/10/26 11:31:47;;;;;;;5.80;4.47;;;;;;;11.82;84.38;100880.09;6319248;28;20203;-73
2021/10/26 11:34:55;;;;;;;6.45;4.30;;;;;;;11.77;84.42;100871.72;6318772;28;20303;-72
2021/10/26 11:38:07;;;;;;;6.75;4.28;;;;;;;11.79;84.01;100870.44;6336701;28;20254;-73
2021/10/26 11:41:13;;;;;;;4.18;3.85;;;;;;;11.75;84.60;100873.84;6336502;28;20218;-72
2021/10/26 11:44:21;;;;;;;8.80;4.00;;;;;;;11.75;85.28;100868.38;6319640;28;20275;-72
2021/10/26 11:47:26;;;;;;;3.92;3.67;;;;;;;11.69;85.21;100859.19;6337689;28;20187;-74
2021/10/26 11:50:31;;;;;;;4.60;4.03;;;;;;;11.66;85.27;100858.75;6318588;28;20267;-73
2021/10/26 11:53:36;;;;;;;5.65;4.00;;;;;;;11.65;86.33;100854.38;6336314;28;20600;-72
2021/10/26 11:56:43;;;;;;;7.00;3.95;;;;;;;11.68;85.93;100859.38;6318386;28;20270;-73
2021/10/26 12:00:02;;;;;;;5.78;4.28;;;;;;;11.69;86.81;100863.81;6317568;28;20219;-72
2021/10/26 12:03:19;;;;;;;4.78;4.40;;;;;;;11.71;86.76;100869.91;6337169;28;20184;-72
2021/10/26 12:06:31;;;;;;;4.10;3.80;;;;;;;11.74;86.76;100869.44;6336210;28;20283;-72
2021/10/26 12:09:38;;;;;;;5.97;4.30;;;;;;;11.65;87.66;100868.03;6337167;28;20194;-72
2021/10/26 12:12:43;;;;;;;6.20;4.25;;;;;;;11.67;86.75;100871.38;6337398;28;20190;-73
2021/10/26 12:15:47;;;;;;;4.60;4.30;;;;;;;11.67;87.47;100865.91;6336712;28;20187;-72
2021/10/26 12:18:51;;;;;;;4.65;4.22;;;;;;;11.59;87.88;100874.38;6335761;28;20473;-72
2021/10/26 12:21:57;;;;;;;5.75;4.13;;;;;;;11.66;88.47;100853.28;6335564;28;20217;-72
2021/10/26 12:25:18;;;;;;;4.75;4.35;;;;;;;11.61;88.81;100864.03;6336277;28;20205;-72
2021/10/26 12:28:24;;;;;;;5.22;4.47;;;;;;;11.67;88.94;100860.44;6318763;28;20210;-73
2021/10/26 12:31:30;;;;;;;7.30;4.57;;;;;;;11.58;89.29;100853.59;6317971;28;20426;-73
2021/10/26 12:34:37;;;;;;;5.03;4.55;;;;;;;11.56;90.01;100847.47;6341491;28;20262;-73
2021/10/26 12:37:41;;;;;;;5.25;4.75;;;;;;;11.59;89.82;100841.59;6341082;28;20297;-73
2021/10/26 12:40:49;;;;;;;7.30;4.75;;;;;;;11.60;89.63;100843.25;6340200;28;20222;-73
2021/10/26 12:44:01;;;;;;;5.93;4.63;;;;;;;11.65;89.72;100830.59;6322136;28;20260;-74
2021/10/26 12:47:08;;;;;;;7.72;4.05;;;;;;;11.56;90.58;100833.81;6340204;28;20183;-73
2021/10/26 12:50:25;;;;;;;4.82;4.43;;;;;;;11.48;91.25;100839.59;6340120;28;20187;-73
2021/10/26 12:53:37;;;;;;;5.13;4.63;;;;;;;11.54;91.51;100844.16;6339650;28;20466;-74
2021/10/26 12:56:48;;;;;;;16.10;11.13;;;;;;;11.61;90.79;100840.28;6340945;28;20198;-74
2021/10/26 12:59:54;;;;;;;6.13;5.53;;;;;;;11.50;91.79;100821.06;6340681;28;20215;-73
2021/10/26 13:03:09;;;;;;;6.00;4.78;;;;;;;11.45;91.86;100823.66;6339513;28;20193;-74
2021/10/26 13:06:13;;;;;;;4.38;3.97;;;;;;;11.50;91.84;100826.53;6339784;28;20234;-74
2021/10/26 13:09:31;;;;;;;6.70;4.60;;;;;;;11.59;91.04;100825.19;6339279;28;20584;-74
2021/10/26 13:12:39;;;;;;;4.47;4.15;;;;;;;11.59;91.27;100819.72;6339148;28;20379;-73
2021/10/26 13:15:44;;;;;;;4.90;4.22;;;;;;;11.62;90.49;100813.81;6340310;28;20219;-72
2021/10/26 13:18:48;;;;;;;4.05;3.75;;;;;;;11.49;91.80;100813.94;6339563;28;20190;-74
2021/10/26 13:21:54;;;;;;;4.45;3.80;;;;;;;11.53;91.05;100815.97;6338862;28;20270;-72
2021/10/26 13:25:00;;;;;;;4.07;3.67;;;;;;;11.55;90.57;100813.03;6339885;28;20183;-72
2021/10/26 13:28:08;;;;;;;6.35;4.45;;;;;;;11.43;91.17;100826.56;6338914;28;20183;-72
2021/10/26 13:31:14;;;;;;;5.55;3.92;;;;;;;11.31;91.39;100815.56;6338556;28;20201;-72
2021/10/26 13:34:18;;;;;;;4.18;3.80;;;;;;;11.47;90.88;100821.50;6339501;28;20190;-73
2021/10/26 13:37:22;;;;;;;5.75;3.78;;;;;;;11.45;90.92;100818.19;6339843;28;20308;-73
2021/10/26 13:40:27;;;;;;;3.60;3.30;;;;;;;11.41;90.74;100811.47;6338196;28;20505;-74
2021/10/26 13:43:33;;;;;;;7.97;3.25;;;;;;;11.35;90.99;100806.91;6337897;28;20246;-73
2021/10/26 13:46:38;;;;;;;3.80;3.58;;;;;;;11.39;90.95;100808.13;6338730;28;20183;-72
2021/10/26 13:49:42;;;;;;;3.72;3.42;;;;;;;11.36;90.95;100803.09;6339199;28;20183;-74
2021/10/26 13:52:46;;;;;;;3.25;3.08;;;;;;;11.28;91.27;100807.78;6339035;28;20231;-73
2021/10/26 13:55:52;;;;;;;4.13;3.90;;;;;;;11.33;90.69;100805.22;6339034;28;20205;-73
2021/10/26 13:58:58;;;;;;;13.40;7.00;;;;;;;11.34;91.04;100800.63;6338453;28;20203;-73
2021/10/26 14:02:02;;;;;;;15.68;7.80;;;;;;;11.40;90.60;100801.63;6337716;28;20513;-73
2021/10/26 14:05:11;;;;;;;4.03;3.72;;;;;;;11.38;90.36;100795.53;6338800;28;20195;-73
2021/10/26 14:08:16;;;;;;;3.97;3.17;;;;;;;11.26;91.15;100799.00;6339149;28;20234;-73
2021/10/26 14:11:20;;;;;;;3.25;3.05;;;;;;;11.24;91.58;100795.66;6337744;28;20429;-73
2021/10/26 14:14:26;;;;;;;3.95;2.80;;;;;;;11.36;90.48;100803.09;6337635;28;20382;-73
2021/10/26 14:17:31;;;;;;;2.70;2.60;;;;;;;11.40;90.35;100807.91;6338813;28;20218;-73
2021/10/26 14:20:41;;;;;;;3.28;2.97;;;;;;;11.32;90.39;100800.00;6337334;28;20412;-73
2021/10/26 14:23:45;;;;;;;2.80;2.70;;;;;;;11.24;91.15;100794.81;6337718;28;20189;-72
2021/10/26 14:27:02;;;;;;;2.72;2.63;;;;;;;11.19;91.46;100803.69;6337706;28;20250;-73
2021/10/26 14:30:09;;;;;;;2.97;2.78;;;;;;;11.26;90.83;100809.91;6337029;28;20183;-72
2021/10/26 14:33:14;;;;;;;4.28;2.65;;;;;;;11.21;91.53;100822.56;6338599;28;20194;-74
2021/10/26 14:36:20;;;;;;;2.45;2.35;;;;;;;11.23;91.06;100826.75;6338405;28;20183;-73
2021/10/26 14:39:39;;;;;;;2.60;2.55;;;;;;;11.21;91.10;100817.94;6337741;28;20191;-73
2021/10/26 14:52:38;;;;;;;2.58;2.25;;;;;;;11.09;92.16;100825.16;6338720;28;20215;-74
2021/10/26 14:53:26;;;;;;;2.85;2.33;;;;;;;11.10;90.58;100818.66;6336671;28;20261;-73